sensor_id;sensor_type;location;lat;lon;timestamp;temperature;humidity
7000;DHT22;3540;53.242;10.408;2023-04-21T00:00:06;7.60;1.00
7000;DHT22;3540;53.242;10.408;2023-04-21T00:02:34;7.50;1.00
7000;DHT22;3540;53.242;10.408;2023-04-21T00:05:05;7.50;1.00
7000;DHT22;3540;53.242;10.408;2023-04-21T00:07:31;7.50;1.00
7000;DHT22;3540;53.242;10.408;2023-04-21T00:09:58;7.40;1.00
7000;DHT22;3540;53.242;10.408;2023-04-21T00:12:26;7.40;1.00
7000;DHT22;3540;53.242;10.408;2023-04-21T00:14:52;7.40;1.00
7000;DHT22;3540;53.242;10.408;2023-04-21T00:17:18;7.40;1.00
7000;DHT22;3540;53.242;10.408;2023-04-21T00:19:43;7.30;1.00
7000;DHT22;3540;53.242;10.408;2023-04-21T00:22:09;7.30;1.00
7000;DHT22;3540;53.242;10.408;2023-04-21T00:24:39;7.30;1.00
7000;DHT22;3540;53.242;10.408;2023-04-21T00:27:05;7.20;1.00
7000;DHT22;3540;53.242;10.408;2023-04-21T00:29:30;7.20;1.00
7000;DHT22;3540;53.242;10.408;2023-04-21T00:31:56;7.20;1.00
7000;DHT22;3540;53.242;10.408;2023-04-21T00:34:21;7.20;1.00
7000;DHT22;3540;53.242;10.408;2023-04-21T00:36:47;7.20;1.00
7000;DHT22;3540;53.242;10.408;2023-04-21T00:39:13;7.10;1.00
7000;DHT22;3540;53.242;10.408;2023-04-21T00:41:38;7.10;1.00
7000;DHT22;3540;53.242;10.408;2023-04-21T00:44:06;7.00;1.00
7000;DHT22;3540;53.242;10.408;2023-04-21T00:46:33;7.10;1.00
7000;DHT22;3540;53.242;10.408;2023-04-21T00:49:04;7.00;1.00
7000;DHT22;3540;53.242;10.408;2023-04-21T00:51:30;7.00;1.00
7000;DHT22;3540;53.242;10.408;2023-04-21T00:53:57;7.00;1.00
7000;DHT22;3540;53.242;10.408;2023-04-21T00:56:24;7.00;1.00
7000;DHT22;3540;53.242;10.408;2023-04-21T00:58:51;6.90;1.00
7000;DHT22;3540;53.242;10.408;2023-04-21T01:01:18;6.90;1.00
7000;DHT22;3540;53.242;10.408;2023-04-21T01:03:44;6.90;1.00
7000;DHT22;3540;53.242;10.408;2023-04-21T01:06:11;6.90;1.00
7000;DHT22;3540;53.242;10.408;2023-04-21T01:08:37;6.80;1.00
7000;DHT22;3540;53.242;10.408;2023-04-21T01:11:10;6.80;1.00
7000;DHT22;3540;53.242;10.408;2023-04-21T01:13:36;6.80;1.00
7000;DHT22;3540;53.242;10.408;2023-04-21T01:16:02;6.70;1.00
7000;DHT22;3540;53.242;10.408;2023-04-21T01:18:28;6.70;1.00
7000;DHT22;3540;53.242;10.408;2023-04-21T01:20:54;6.70;1.00
7000;DHT22;3540;53.242;10.408;2023-04-21T01:23:21;6.70;13.70
7000;DHT22;3540;53.242;10.408;2023-04-21T01:25:46;6.60;16.70
7000;DHT22;3540;53.242;10.408;2023-04-21T01:28:12;6.60;15.90
7000;DHT22;3540;53.242;10.408;2023-04-21T01:30:38;6.60;36.00
7000;DHT22;3540;53.242;10.408;2023-04-21T01:33:03;6.60;58.60
7000;DHT22;3540;53.242;10.408;2023-04-21T01:35:29;6.60;57.60
7000;DHT22;3540;53.242;10.408;2023-04-21T01:37:55;6.60;45.80
7000;DHT22;3540;53.242;10.408;2023-04-21T01:40:21;6.50;68.10
7000;DHT22;3540;53.242;10.408;2023-04-21T01:42:46;6.60;91.00
7000;DHT22;3540;53.242;10.408;2023-04-21T01:45:12;6.50;72.50
7000;DHT22;3540;53.242;10.408;2023-04-21T01:47:38;6.40;94.00
7000;DHT22;3540;53.242;10.408;2023-04-21T01:50:04;6.40;99.90
7000;DHT22;3540;53.242;10.408;2023-04-21T01:52:30;6.40;99.90
7000;DHT22;3540;53.242;10.408;2023-04-21T01:54:55;6.40;99.90
7000;DHT22;3540;53.242;10.408;2023-04-21T01:57:21;6.40;99.90
7000;DHT22;3540;53.242;10.408;2023-04-21T01:59:46;6.50;99.90
7000;DHT22;3540;53.242;10.408;2023-04-21T02:02:13;6.50;94.80
7000;DHT22;3540;53.242;10.408;2023-04-21T02:04:39;6.50;91.80
7000;DHT22;3540;53.242;10.408;2023-04-21T02:07:05;6.40;96.30
7000;DHT22;3540;53.242;10.408;2023-04-21T02:09:30;6.40;99.90
7000;DHT22;3540;53.242;10.408;2023-04-21T02:11:57;6.40;99.90
7000;DHT22;3540;53.242;10.408;2023-04-21T02:14:24;6.40;99.90
7000;DHT22;3540;53.242;10.408;2023-04-21T02:16:50;6.40;99.90
7000;DHT22;3540;53.242;10.408;2023-04-21T02:19:15;6.50;99.90
7000;DHT22;3540;53.242;10.408;2023-04-21T02:21:41;6.40;76.50
7000;DHT22;3540;53.242;10.408;2023-04-21T02:24:07;6.40;99.70
7000;DHT22;3540;53.242;10.408;2023-04-21T02:26:32;6.30;99.90
7000;DHT22;3540;53.242;10.408;2023-04-21T02:28:58;6.30;99.90
7000;DHT22;3540;53.242;10.408;2023-04-21T02:31:24;6.30;99.90
7000;DHT22;3540;53.242;10.408;2023-04-21T02:33:49;6.30;99.90
7000;DHT22;3540;53.242;10.408;2023-04-21T02:36:15;6.20;99.90
7000;DHT22;3540;53.242;10.408;2023-04-21T02:38:41;6.20;99.90
7000;DHT22;3540;53.242;10.408;2023-04-21T02:41:06;6.20;99.90
7000;DHT22;3540;53.242;10.408;2023-04-21T02:43:32;6.20;99.90
7000;DHT22;3540;53.242;10.408;2023-04-21T02:45:58;6.10;99.90
7000;DHT22;3540;53.242;10.408;2023-04-21T02:48:23;6.10;99.90
7000;DHT22;3540;53.242;10.408;2023-04-21T02:50:50;6.10;99.90
7000;DHT22;3540;53.242;10.408;2023-04-21T02:53:17;6.10;99.90
7000;DHT22;3540;53.242;10.408;2023-04-21T02:55:43;6.00;99.90
7000;DHT22;3540;53.242;10.408;2023-04-21T02:58:09;6.00;99.90
7000;DHT22;3540;53.242;10.408;2023-04-21T03:00:35;6.00;99.90
7000;DHT22;3540;53.242;10.408;2023-04-21T03:03:01;5.90;99.90
7000;DHT22;3540;53.242;10.408;2023-04-21T03:05:27;5.90;99.90
7000;DHT22;3540;53.242;10.408;2023-04-21T03:07:52;5.90;99.90
7000;DHT22;3540;53.242;10.408;2023-04-21T03:10:18;5.90;99.90
7000;DHT22;3540;53.242;10.408;2023-04-21T03:12:44;5.90;99.90
7000;DHT22;3540;53.242;10.408;2023-04-21T03:15:10;5.90;99.90
7000;DHT22;3540;53.242;10.408;2023-04-21T03:17:36;5.90;99.90
7000;DHT22;3540;53.242;10.408;2023-04-21T03:20:01;5.90;99.90
7000;DHT22;3540;53.242;10.408;2023-04-21T03:22:30;5.90;99.90
7000;DHT22;3540;53.242;10.408;2023-04-21T03:24:56;5.90;99.90
7000;DHT22;3540;53.242;10.408;2023-04-21T03:27:21;5.90;99.90
7000;DHT22;3540;53.242;10.408;2023-04-21T03:29:47;5.90;99.90
7000;DHT22;3540;53.242;10.408;2023-04-21T03:32:12;5.90;99.90
7000;DHT22;3540;53.242;10.408;2023-04-21T03:34:38;6.00;99.90
7000;DHT22;3540;53.242;10.408;2023-04-21T03:37:04;6.00;99.90
7000;DHT22;3540;53.242;10.408;2023-04-21T03:39:29;6.00;99.90
7000;DHT22;3540;53.242;10.408;2023-04-21T03:41:55;6.00;99.90
7000;DHT22;3540;53.242;10.408;2023-04-21T03:44:20;6.00;99.90
7000;DHT22;3540;53.242;10.408;2023-04-21T03:46:46;6.00;99.90
7000;DHT22;3540;53.242;10.408;2023-04-21T03:49:12;5.90;99.90
7000;DHT22;3540;53.242;10.408;2023-04-21T03:51:37;6.00;99.90
7000;DHT22;3540;53.242;10.408;2023-04-21T03:54:03;6.00;99.90
7000;DHT22;3540;53.242;10.408;2023-04-21T03:56:28;6.00;99.90
7000;DHT22;3540;53.242;10.408;2023-04-21T03:58:54;6.20;99.90
7000;DHT22;3540;53.242;10.408;2023-04-21T04:01:19;6.20;99.90
7000;DHT22;3540;53.242;10.408;2023-04-21T04:03:46;6.30;99.90
7000;DHT22;3540;53.242;10.408;2023-04-21T04:06:11;6.30;99.90
7000;DHT22;3540;53.242;10.408;2023-04-21T04:08:37;6.30;99.90
7000;DHT22;3540;53.242;10.408;2023-04-21T04:11:02;6.30;99.90
7000;DHT22;3540;53.242;10.408;2023-04-21T04:13:28;6.30;97.70
7000;DHT22;3540;53.242;10.408;2023-04-21T04:15:54;6.30;73.00
7000;DHT22;3540;53.242;10.408;2023-04-21T04:18:20;6.30;48.80
7000;DHT22;3540;53.242;10.408;2023-04-21T04:20:45;6.40;34.40
7000;DHT22;3540;53.242;10.408;2023-04-21T04:23:11;6.30;20.70
7000;DHT22;3540;53.242;10.408;2023-04-21T04:25:36;6.30;15.40
7000;DHT22;3540;53.242;10.408;2023-04-21T04:28:03;6.30;33.10
7000;DHT22;3540;53.242;10.408;2023-04-21T04:30:30;6.40;16.10
7000;DHT22;3540;53.242;10.408;2023-04-21T04:32:57;6.40;1.00
7000;DHT22;3540;53.242;10.408;2023-04-21T04:35:23;6.30;1.50
7000;DHT22;3540;53.242;10.408;2023-04-21T04:37:49;6.40;55.40
7000;DHT22;3540;53.242;10.408;2023-04-21T04:40:15;6.40;25.30
7000;DHT22;3540;53.242;10.408;2023-04-21T04:42:41;6.40;8.40
7000;DHT22;3540;53.242;10.408;2023-04-21T04:45:07;6.40;1.00
7000;DHT22;3540;53.242;10.408;2023-04-21T04:47:34;6.40;1.00
7000;DHT22;3540;53.242;10.408;2023-04-21T04:50:00;6.40;1.00
7000;DHT22;3540;53.242;10.408;2023-04-21T04:52:25;6.40;1.00
7000;DHT22;3540;53.242;10.408;2023-04-21T04:54:51;6.50;1.00
7000;DHT22;3540;53.242;10.408;2023-04-21T04:57:16;6.50;1.00
7000;DHT22;3540;53.242;10.408;2023-04-21T04:59:42;6.60;1.00
7000;DHT22;3540;53.242;10.408;2023-04-21T05:02:08;6.60;1.00
7000;DHT22;3540;53.242;10.408;2023-04-21T05:04:35;6.60;1.00
7000;DHT22;3540;53.242;10.408;2023-04-21T05:07:00;6.70;1.00
7000;DHT22;3540;53.242;10.408;2023-04-21T05:09:26;6.70;1.00
7000;DHT22;3540;53.242;10.408;2023-04-21T05:11:51;6.70;1.00
7000;DHT22;3540;53.242;10.408;2023-04-21T05:14:17;6.70;1.00
7000;DHT22;3540;53.242;10.408;2023-04-21T05:16:43;6.80;1.00
7000;DHT22;3540;53.242;10.408;2023-04-21T05:19:09;6.90;1.00
7000;DHT22;3540;53.242;10.408;2023-04-21T05:21:34;6.90;1.00
7000;DHT22;3540;53.242;10.408;2023-04-21T05:24:00;7.00;1.00
7000;DHT22;3540;53.242;10.408;2023-04-21T05:26:27;7.10;1.00
7000;DHT22;3540;53.242;10.408;2023-04-21T05:28:56;7.10;1.00
7000;DHT22;3540;53.242;10.408;2023-04-21T05:31:22;7.10;1.00
7000;DHT22;3540;53.242;10.408;2023-04-21T05:33:48;7.20;1.00
7000;DHT22;3540;53.242;10.408;2023-04-21T05:36:14;7.30;1.00
7000;DHT22;3540;53.242;10.408;2023-04-21T05:38:40;7.40;1.00
7000;DHT22;3540;53.242;10.408;2023-04-21T05:41:06;7.50;1.00
7000;DHT22;3540;53.242;10.408;2023-04-21T05:43:32;7.60;1.00
7000;DHT22;3540;53.242;10.408;2023-04-21T05:45:59;7.70;1.00
7000;DHT22;3540;53.242;10.408;2023-04-21T05:48:25;7.80;1.00
7000;DHT22;3540;53.242;10.408;2023-04-21T05:50:50;7.90;1.00
7000;DHT22;3540;53.242;10.408;2023-04-21T05:53:19;8.00;1.00
7000;DHT22;3540;53.242;10.408;2023-04-21T05:55:45;8.10;1.00
7000;DHT22;3540;53.242;10.408;2023-04-21T05:58:10;8.10;1.00
7000;DHT22;3540;53.242;10.408;2023-04-21T06:00:36;8.20;1.00
7000;DHT22;3540;53.242;10.408;2023-04-21T06:03:02;8.30;1.00
7000;DHT22;3540;53.242;10.408;2023-04-21T06:05:27;8.30;1.00
7000;DHT22;3540;53.242;10.408;2023-04-21T06:07:53;8.40;1.00
7000;DHT22;3540;53.242;10.408;2023-04-21T06:10:19;8.50;1.00
7000;DHT22;3540;53.242;10.408;2023-04-21T06:12:45;8.70;1.00
7000;DHT22;3540;53.242;10.408;2023-04-21T06:15:11;8.80;1.00
7000;DHT22;3540;53.242;10.408;2023-04-21T06:17:37;8.90;1.00
7000;DHT22;3540;53.242;10.408;2023-04-21T06:20:03;9.00;1.00
7000;DHT22;3540;53.242;10.408;2023-04-21T06:22:29;9.10;1.00
7000;DHT22;3540;53.242;10.408;2023-04-21T06:24:54;9.20;1.00
7000;DHT22;3540;53.242;10.408;2023-04-21T06:27:20;9.30;1.00
7000;DHT22;3540;53.242;10.408;2023-04-21T06:29:45;9.40;1.00
7000;DHT22;3540;53.242;10.408;2023-04-21T06:32:11;9.60;1.00
7000;DHT22;3540;53.242;10.408;2023-04-21T06:34:37;9.70;1.00
7000;DHT22;3540;53.242;10.408;2023-04-21T06:37:03;9.80;1.00
7000;DHT22;3540;53.242;10.408;2023-04-21T06:39:29;9.90;1.00
7000;DHT22;3540;53.242;10.408;2023-04-21T06:41:55;9.90;1.00
7000;DHT22;3540;53.242;10.408;2023-04-21T06:44:22;10.10;1.00
7000;DHT22;3540;53.242;10.408;2023-04-21T06:46:48;10.20;1.00
7000;DHT22;3540;53.242;10.408;2023-04-21T06:49:13;10.30;1.00
7000;DHT22;3540;53.242;10.408;2023-04-21T06:51:39;10.40;1.00
7000;DHT22;3540;53.242;10.408;2023-04-21T06:54:04;10.40;1.00
7000;DHT22;3540;53.242;10.408;2023-04-21T06:56:31;10.40;1.00
7000;DHT22;3540;53.242;10.408;2023-04-21T06:58:57;10.60;1.00
7000;DHT22;3540;53.242;10.408;2023-04-21T07:01:22;10.70;1.00
7000;DHT22;3540;53.242;10.408;2023-04-21T07:03:51;10.80;1.00
7000;DHT22;3540;53.242;10.408;2023-04-21T07:06:17;10.90;1.00
7000;DHT22;3540;53.242;10.408;2023-04-21T07:08:42;11.00;1.00
7000;DHT22;3540;53.242;10.408;2023-04-21T07:11:08;11.10;1.00
7000;DHT22;3540;53.242;10.408;2023-04-21T07:13:34;11.30;99.90
7000;DHT22;3540;53.242;10.408;2023-04-21T07:16:01;11.40;99.90
7000;DHT22;3540;53.242;10.408;2023-04-21T07:18:27;11.60;99.90
7000;DHT22;3540;53.242;10.408;2023-04-21T07:20:53;11.60;99.90
7000;DHT22;3540;53.242;10.408;2023-04-21T07:23:18;11.70;99.90
7000;DHT22;3540;53.242;10.408;2023-04-21T07:25:44;11.90;99.90
7000;DHT22;3540;53.242;10.408;2023-04-21T07:28:10;11.80;99.90
7000;DHT22;3540;53.242;10.408;2023-04-21T07:30:36;12.10;99.90
7000;DHT22;3540;53.242;10.408;2023-04-21T07:33:01;12.30;99.90
7000;DHT22;3540;53.242;10.408;2023-04-21T07:35:27;12.30;99.90
7000;DHT22;3540;53.242;10.408;2023-04-21T07:37:52;12.40;99.90
7000;DHT22;3540;53.242;10.408;2023-04-21T07:40:18;12.60;99.90
7000;DHT22;3540;53.242;10.408;2023-04-21T07:42:44;12.60;99.90
7000;DHT22;3540;53.242;10.408;2023-04-21T07:45:10;12.50;99.90
7000;DHT22;3540;53.242;10.408;2023-04-21T07:47:36;12.60;99.90
7000;DHT22;3540;53.242;10.408;2023-04-21T07:50:01;12.80;99.90
7000;DHT22;3540;53.242;10.408;2023-04-21T07:52:27;12.90;99.90
7000;DHT22;3540;53.242;10.408;2023-04-21T07:54:53;13.00;99.90
7000;DHT22;3540;53.242;10.408;2023-04-21T07:57:18;13.20;99.90
7000;DHT22;3540;53.242;10.408;2023-04-21T07:59:44;13.40;99.90
7000;DHT22;3540;53.242;10.408;2023-04-21T08:02:09;13.60;99.90
7000;DHT22;3540;53.242;10.408;2023-04-21T08:04:35;13.70;99.90
7000;DHT22;3540;53.242;10.408;2023-04-21T08:07:01;13.60;99.90
7000;DHT22;3540;53.242;10.408;2023-04-21T08:09:26;13.50;99.90
7000;DHT22;3540;53.242;10.408;2023-04-21T08:11:52;13.60;99.90
7000;DHT22;3540;53.242;10.408;2023-04-21T08:14:19;13.80;99.90
7000;DHT22;3540;53.242;10.408;2023-04-21T08:16:45;13.80;99.90
7000;DHT22;3540;53.242;10.408;2023-04-21T08:19:11;13.70;99.90
7000;DHT22;3540;53.242;10.408;2023-04-21T08:21:38;13.90;99.90
7000;DHT22;3540;53.242;10.408;2023-04-21T08:24:03;13.90;99.90
7000;DHT22;3540;53.242;10.408;2023-04-21T08:26:29;13.90;99.90
7000;DHT22;3540;53.242;10.408;2023-04-21T08:28:58;13.90;99.90
7000;DHT22;3540;53.242;10.408;2023-04-21T08:31:24;13.90;99.90
7000;DHT22;3540;53.242;10.408;2023-04-21T08:33:50;14.10;99.90
7000;DHT22;3540;53.242;10.408;2023-04-21T08:36:15;14.40;99.90
7000;DHT22;3540;53.242;10.408;2023-04-21T08:38:42;14.60;99.90
7000;DHT22;3540;53.242;10.408;2023-04-21T08:41:09;14.80;99.90
7000;DHT22;3540;53.242;10.408;2023-04-21T08:43:35;14.60;99.90
7000;DHT22;3540;53.242;10.408;2023-04-21T08:46:05;14.50;99.90
7000;DHT22;3540;53.242;10.408;2023-04-21T08:48:34;14.70;99.90
7000;DHT22;3540;53.242;10.408;2023-04-21T08:51:01;15.00;99.90
7000;DHT22;3540;53.242;10.408;2023-04-21T08:53:27;15.30;99.90
7000;DHT22;3540;53.242;10.408;2023-04-21T08:55:54;15.50;99.90
7000;DHT22;3540;53.242;10.408;2023-04-21T08:58:20;15.80;99.90
7000;DHT22;3540;53.242;10.408;2023-04-21T09:00:48;15.60;99.90
7000;DHT22;3540;53.242;10.408;2023-04-21T09:03:23;15.40;99.90
7000;DHT22;3540;53.242;10.408;2023-04-21T09:06:03;15.60;99.90
7000;DHT22;3540;53.242;10.408;2023-04-21T09:08:30;15.80;99.90
7000;DHT22;3540;53.242;10.408;2023-04-21T09:10:57;15.80;99.90
7000;DHT22;3540;53.242;10.408;2023-04-21T09:13:35;15.50;99.90
7000;DHT22;3540;53.242;10.408;2023-04-21T09:16:03;15.70;99.90
7000;DHT22;3540;53.242;10.408;2023-04-21T09:18:30;15.90;99.90
7000;DHT22;3540;53.242;10.408;2023-04-21T09:21:11;16.10;99.90
7000;DHT22;3540;53.242;10.408;2023-04-21T09:23:51;16.10;99.90
7000;DHT22;3540;53.242;10.408;2023-04-21T09:26:18;15.90;99.90
7000;DHT22;3540;53.242;10.408;2023-04-21T09:28:46;16.20;99.90
7000;DHT22;3540;53.242;10.408;2023-04-21T09:31:19;16.30;99.90
7000;DHT22;3540;53.242;10.408;2023-04-21T09:33:53;16.70;99.90
7000;DHT22;3540;53.242;10.408;2023-04-21T09:36:20;16.30;99.90
7000;DHT22;3540;53.242;10.408;2023-04-21T09:39:05;16.50;99.90
7000;DHT22;3540;53.242;10.408;2023-04-21T09:41:32;16.60;99.90
7000;DHT22;3540;53.242;10.408;2023-04-21T09:43:58;16.80;99.90
7000;DHT22;3540;53.242;10.408;2023-04-21T09:46:32;16.90;99.90
7000;DHT22;3540;53.242;10.408;2023-04-21T09:49:00;17.10;99.90
7000;DHT22;3540;53.242;10.408;2023-04-21T09:51:26;17.40;99.90
7000;DHT22;3540;53.242;10.408;2023-04-21T09:53:58;17.60;99.90
7000;DHT22;3540;53.242;10.408;2023-04-21T09:56:24;17.30;99.90
7000;DHT22;3540;53.242;10.408;2023-04-21T09:58:57;17.10;99.90
7000;DHT22;3540;53.242;10.408;2023-04-21T10:01:26;17.00;99.90
7000;DHT22;3540;53.242;10.408;2023-04-21T10:03:54;17.30;99.90
7000;DHT22;3540;53.242;10.408;2023-04-21T10:06:20;17.00;99.90
7000;DHT22;3540;53.242;10.408;2023-04-21T10:08:46;17.20;99.90
7000;DHT22;3540;53.242;10.408;2023-04-21T10:11:14;17.50;99.90
7000;DHT22;3540;53.242;10.408;2023-04-21T10:13:40;17.70;99.90
7000;DHT22;3540;53.242;10.408;2023-04-21T10:16:09;17.70;99.90
7000;DHT22;3540;53.242;10.408;2023-04-21T10:18:36;17.80;99.90
7000;DHT22;3540;53.242;10.408;2023-04-21T10:21:16;17.60;99.90
7000;DHT22;3540;53.242;10.408;2023-04-21T10:23:49;17.70;99.90
7000;DHT22;3540;53.242;10.408;2023-04-21T10:29:00;18.10;99.90
7000;DHT22;3540;53.242;10.408;2023-04-21T10:31:30;18.10;99.90
7000;DHT22;3540;53.242;10.408;2023-04-21T10:39:07;18.20;99.90
7000;DHT22;3540;53.242;10.408;2023-04-21T10:41:34;18.30;99.90
7000;DHT22;3540;53.242;10.408;2023-04-21T10:46:49;18.10;99.90
7000;DHT22;3540;53.242;10.408;2023-04-21T10:57:05;18.50;99.90
7000;DHT22;3540;53.242;10.408;2023-04-21T10:59:33;18.60;99.90
7000;DHT22;3540;53.242;10.408;2023-04-21T11:02:33;19.00;99.90
7000;DHT22;3540;53.242;10.408;2023-04-21T11:04:53;19.20;99.90
7000;DHT22;3540;53.242;10.408;2023-04-21T11:07:22;19.20;99.90
7000;DHT22;3540;53.242;10.408;2023-04-21T11:09:56;19.40;99.90
7000;DHT22;3540;53.242;10.408;2023-04-21T11:12:25;19.60;99.90
7000;DHT22;3540;53.242;10.408;2023-04-21T11:14:50;19.50;99.90
7000;DHT22;3540;53.242;10.408;2023-04-21T11:17:18;19.50;99.90
7000;DHT22;3540;53.242;10.408;2023-04-21T11:19:46;19.50;99.90
7000;DHT22;3540;53.242;10.408;2023-04-21T11:22:11;19.70;99.90
7000;DHT22;3540;53.242;10.408;2023-04-21T11:24:37;19.80;99.90
7000;DHT22;3540;53.242;10.408;2023-04-21T11:27:08;19.30;99.90
7000;DHT22;3540;53.242;10.408;2023-04-21T11:29:34;19.40;99.90
7000;DHT22;3540;53.242;10.408;2023-04-21T11:31:59;19.40;99.90
7000;DHT22;3540;53.242;10.408;2023-04-21T11:34:26;19.70;99.90
7000;DHT22;3540;53.242;10.408;2023-04-21T11:36:52;20.10;99.90
7000;DHT22;3540;53.242;10.408;2023-04-21T11:39:19;20.20;99.90
7000;DHT22;3540;53.242;10.408;2023-04-21T11:41:48;20.60;99.90
7000;DHT22;3540;53.242;10.408;2023-04-21T11:46:55;20.10;99.90
7000;DHT22;3540;53.242;10.408;2023-04-21T11:49:24;20.00;99.90
7000;DHT22;3540;53.242;10.408;2023-04-21T11:51:50;20.10;99.90
7000;DHT22;3540;53.242;10.408;2023-04-21T11:54:17;20.00;99.90
7000;DHT22;3540;53.242;10.408;2023-04-21T11:56:46;19.90;99.90
7000;DHT22;3540;53.242;10.408;2023-04-21T11:59:12;20.20;99.90
7000;DHT22;3540;53.242;10.408;2023-04-21T12:01:44;20.60;99.90
7000;DHT22;3540;53.242;10.408;2023-04-21T12:04:21;20.90;99.90
7000;DHT22;3540;53.242;10.408;2023-04-21T12:06:59;20.70;99.90
7000;DHT22;3540;53.242;10.408;2023-04-21T12:09:25;20.20;99.90
7000;DHT22;3540;53.242;10.408;2023-04-21T12:11:53;20.20;99.90
7000;DHT22;3540;53.242;10.408;2023-04-21T12:14:21;20.60;99.90
7000;DHT22;3540;53.242;10.408;2023-04-21T12:16:55;20.60;99.90
7000;DHT22;3540;53.242;10.408;2023-04-21T12:19:34;20.50;99.90
7000;DHT22;3540;53.242;10.408;2023-04-21T12:22:00;20.40;99.90
7000;DHT22;3540;53.242;10.408;2023-04-21T12:24:26;20.80;99.90
7000;DHT22;3540;53.242;10.408;2023-04-21T12:26:53;21.10;99.90
7000;DHT22;3540;53.242;10.408;2023-04-21T12:29:18;21.00;99.90
7000;DHT22;3540;53.242;10.408;2023-04-21T12:31:44;20.60;99.90
7000;DHT22;3540;53.242;10.408;2023-04-21T12:34:10;20.80;99.90
7000;DHT22;3540;53.242;10.408;2023-04-21T12:36:35;20.80;99.90
7000;DHT22;3540;53.242;10.408;2023-04-21T12:39:01;21.00;99.90
7000;DHT22;3540;53.242;10.408;2023-04-21T12:41:26;20.60;99.90
7000;DHT22;3540;53.242;10.408;2023-04-21T12:43:52;20.50;99.90
7000;DHT22;3540;53.242;10.408;2023-04-21T12:46:18;20.30;99.90
7000;DHT22;3540;53.242;10.408;2023-04-21T12:48:44;20.20;99.90
7000;DHT22;3540;53.242;10.408;2023-04-21T12:51:09;20.70;99.90
7000;DHT22;3540;53.242;10.408;2023-04-21T12:53:35;20.80;99.90
7000;DHT22;3540;53.242;10.408;2023-04-21T12:56:02;21.00;99.90
7000;DHT22;3540;53.242;10.408;2023-04-21T12:58:27;21.00;99.90
7000;DHT22;3540;53.242;10.408;2023-04-21T13:00:53;20.80;99.90
7000;DHT22;3540;53.242;10.408;2023-04-21T13:03:19;20.70;99.90
7000;DHT22;3540;53.242;10.408;2023-04-21T13:05:45;20.80;99.90
7000;DHT22;3540;53.242;10.408;2023-04-21T13:08:11;20.70;99.90
7000;DHT22;3540;53.242;10.408;2023-04-21T13:10:36;20.50;99.90
7000;DHT22;3540;53.242;10.408;2023-04-21T13:13:02;20.60;99.90
7000;DHT22;3540;53.242;10.408;2023-04-21T13:15:28;20.50;99.90
7000;DHT22;3540;53.242;10.408;2023-04-21T13:17:53;20.80;99.90
7000;DHT22;3540;53.242;10.408;2023-04-21T13:20:19;20.90;99.90
7000;DHT22;3540;53.242;10.408;2023-04-21T13:22:45;20.80;99.90
7000;DHT22;3540;53.242;10.408;2023-04-21T13:25:11;20.80;99.90
7000;DHT22;3540;53.242;10.408;2023-04-21T13:27:36;21.00;99.90
7000;DHT22;3540;53.242;10.408;2023-04-21T13:30:09;20.60;99.90
7000;DHT22;3540;53.242;10.408;2023-04-21T13:32:36;20.00;99.90
7000;DHT22;3540;53.242;10.408;2023-04-21T13:35:02;20.40;99.90
7000;DHT22;3540;53.242;10.408;2023-04-21T13:37:33;20.40;99.90
7000;DHT22;3540;53.242;10.408;2023-04-21T13:40:00;20.10;99.90
7000;DHT22;3540;53.242;10.408;2023-04-21T13:42:26;20.30;99.90
7000;DHT22;3540;53.242;10.408;2023-04-21T13:44:52;20.30;99.90
7000;DHT22;3540;53.242;10.408;2023-04-21T13:47:18;20.50;99.90
7000;DHT22;3540;53.242;10.408;2023-04-21T13:49:43;21.00;99.90
7000;DHT22;3540;53.242;10.408;2023-04-21T13:52:10;21.00;99.90
7000;DHT22;3540;53.242;10.408;2023-04-21T13:54:36;20.50;99.90
7000;DHT22;3540;53.242;10.408;2023-04-21T13:57:02;20.60;99.90
7000;DHT22;3540;53.242;10.408;2023-04-21T13:59:28;21.00;99.90
7000;DHT22;3540;53.242;10.408;2023-04-21T14:01:54;21.20;99.90
7000;DHT22;3540;53.242;10.408;2023-04-21T14:04:20;21.30;99.90
7000;DHT22;3540;53.242;10.408;2023-04-21T14:06:49;21.20;99.90
7000;DHT22;3540;53.242;10.408;2023-04-21T14:09:15;21.20;99.90
7000;DHT22;3540;53.242;10.408;2023-04-21T14:11:41;21.10;99.90
7000;DHT22;3540;53.242;10.408;2023-04-21T14:14:06;20.90;99.90
7000;DHT22;3540;53.242;10.408;2023-04-21T14:16:32;20.90;99.90
7000;DHT22;3540;53.242;10.408;2023-04-21T14:18:58;20.70;99.90
7000;DHT22;3540;53.242;10.408;2023-04-21T14:21:23;20.80;99.90
7000;DHT22;3540;53.242;10.408;2023-04-21T14:23:49;20.50;99.90
7000;DHT22;3540;53.242;10.408;2023-04-21T14:26:15;20.70;99.90
7000;DHT22;3540;53.242;10.408;2023-04-21T14:28:41;20.80;99.90
7000;DHT22;3540;53.242;10.408;2023-04-21T14:31:06;21.00;99.90
7000;DHT22;3540;53.242;10.408;2023-04-21T14:33:32;20.70;99.90
7000;DHT22;3540;53.242;10.408;2023-04-21T14:35:58;20.90;99.90
7000;DHT22;3540;53.242;10.408;2023-04-21T14:38:24;21.00;99.90
7000;DHT22;3540;53.242;10.408;2023-04-21T14:40:50;20.50;99.90
7000;DHT22;3540;53.242;10.408;2023-04-21T14:43:19;20.70;99.90
7000;DHT22;3540;53.242;10.408;2023-04-21T14:45:45;20.80;99.90
7000;DHT22;3540;53.242;10.408;2023-04-21T14:48:11;21.00;99.90
7000;DHT22;3540;53.242;10.408;2023-04-21T14:50:38;20.90;99.90
7000;DHT22;3540;53.242;10.408;2023-04-21T14:53:04;21.20;99.90
7000;DHT22;3540;53.242;10.408;2023-04-21T14:55:31;21.20;99.90
7000;DHT22;3540;53.242;10.408;2023-04-21T14:57:56;21.10;99.90
7000;DHT22;3540;53.242;10.408;2023-04-21T15:00:22;20.80;99.90
7000;DHT22;3540;53.242;10.408;2023-04-21T15:02:48;20.80;99.90
7000;DHT22;3540;53.242;10.408;2023-04-21T15:05:14;21.00;99.90
7000;DHT22;3540;53.242;10.408;2023-04-21T15:07:39;20.80;99.90
7000;DHT22;3540;53.242;10.408;2023-04-21T15:10:07;20.30;99.90
7000;DHT22;3540;53.242;10.408;2023-04-21T15:12:33;20.20;99.90
7000;DHT22;3540;53.242;10.408;2023-04-21T15:14:58;20.30;99.90
7000;DHT22;3540;53.242;10.408;2023-04-21T15:17:24;20.60;99.90
7000;DHT22;3540;53.242;10.408;2023-04-21T15:19:50;20.60;99.90
7000;DHT22;3540;53.242;10.408;2023-04-21T15:22:16;20.10;99.90
7000;DHT22;3540;53.242;10.408;2023-04-21T15:24:41;20.20;99.90
7000;DHT22;3540;53.242;10.408;2023-04-21T15:27:07;20.50;99.90
7000;DHT22;3540;53.242;10.408;2023-04-21T15:29:33;20.50;99.90
7000;DHT22;3540;53.242;10.408;2023-04-21T15:31:58;20.50;99.90
7000;DHT22;3540;53.242;10.408;2023-04-21T15:34:24;20.70;99.90
7000;DHT22;3540;53.242;10.408;2023-04-21T15:36:50;20.70;99.90
7000;DHT22;3540;53.242;10.408;2023-04-21T15:39:15;20.70;99.90
7000;DHT22;3540;53.242;10.408;2023-04-21T15:41:41;20.70;99.90
7000;DHT22;3540;53.242;10.408;2023-04-21T15:44:07;20.90;99.90
7000;DHT22;3540;53.242;10.408;2023-04-21T15:46:32;20.40;99.90
7000;DHT22;3540;53.242;10.408;2023-04-21T15:49:01;20.50;99.90
7000;DHT22;3540;53.242;10.408;2023-04-21T15:51:27;20.80;99.90
7000;DHT22;3540;53.242;10.408;2023-04-21T15:53:52;20.70;99.90
7000;DHT22;3540;53.242;10.408;2023-04-21T15:56:18;20.80;99.90
7000;DHT22;3540;53.242;10.408;2023-04-21T15:58:44;20.70;99.90
7000;DHT22;3540;53.242;10.408;2023-04-21T16:01:10;20.70;99.90
7000;DHT22;3540;53.242;10.408;2023-04-21T16:03:36;20.60;99.90
7000;DHT22;3540;53.242;10.408;2023-04-21T16:06:04;20.40;99.90
7000;DHT22;3540;53.242;10.408;2023-04-21T16:08:30;20.60;99.90
7000;DHT22;3540;53.242;10.408;2023-04-21T16:10:57;20.50;99.90
7000;DHT22;3540;53.242;10.408;2023-04-21T16:13:23;20.50;99.90